createdAt,value
2022-12-29T00:00:08.873Z,93.71
2022-12-29T00:00:41.718Z,93.81
2022-12-29T00:01:14.416Z,93.91
2022-12-29T00:01:47.090Z,93.71
2022-12-29T00:02:19.809Z,93.60
2022-12-29T00:02:52.747Z,93.30
2022-12-29T00:03:19.069Z,93.09
2022-12-29T00:03:51.853Z,92.68
2022-12-29T00:04:24.571Z,92.78
2022-12-29T00:04:57.238Z,92.78
2022-12-29T00:05:29.928Z,92.88
2022-12-29T00:06:02.573Z,92.88
2022-12-29T00:06:35.245Z,92.88
2022-12-29T00:07:07.927Z,92.99
2022-12-29T00:07:40.604Z,92.99
2022-12-29T00:08:13.273Z,93.19
2022-12-29T00:08:45.954Z,93.19
2022-12-29T00:09:18.624Z,93.09
2022-12-29T00:09:51.311Z,93.09
2022-12-29T00:10:23.989Z,92.99
2022-12-29T00:10:56.633Z,93.30
2022-12-29T00:11:29.296Z,93.40
2022-12-29T00:12:01.966Z,93.09
2022-12-29T00:12:34.641Z,92.99
2022-12-29T00:13:07.314Z,92.88
2022-12-29T00:13:39.996Z,92.88
2022-12-29T00:14:12.688Z,92.88
2022-12-29T00:14:45.390Z,92.88
2022-12-29T00:15:18.073Z,92.68
2022-12-29T00:15:50.804Z,92.68
2022-12-29T00:16:23.596Z,92.78
2022-12-29T00:16:50.036Z,92.78
2022-12-29T00:17:22.700Z,92.63
2022-12-29T00:17:55.366Z,92.53
2022-12-29T00:18:28.056Z,92.63
2022-12-29T00:19:00.733Z,92.63
2022-12-29T00:19:31.838Z,92.53
2022-12-29T00:20:04.480Z,92.74
2022-12-29T00:20:37.144Z,92.74
2022-12-29T00:21:09.807Z,92.74
2022-12-29T00:21:42.479Z,92.84
2022-12-29T00:22:15.158Z,93.05
2022-12-29T00:22:47.819Z,93.15
2022-12-29T00:23:20.493Z,93.25
2022-12-29T00:23:53.164Z,93.35
2022-12-29T00:24:25.854Z,93.30
2022-12-29T00:24:58.521Z,93.15
2022-12-29T00:25:31.211Z,92.99
2022-12-29T00:26:03.870Z,92.94
2022-12-29T00:26:36.569Z,92.78
2022-12-29T00:27:09.218Z,92.74
2022-12-29T00:27:41.886Z,92.99
2022-12-29T00:28:14.567Z,93.05
2022-12-29T00:28:47.243Z,92.78
2022-12-29T00:29:19.925Z,92.74
2022-12-29T00:29:52.587Z,92.53
2022-12-29T00:30:25.249Z,92.43
2022-12-29T00:30:57.978Z,92.63
2022-12-29T00:31:30.659Z,92.63
2022-12-29T00:32:03.356Z,92.22
2022-12-29T00:32:36.061Z,92.02
2022-12-29T00:33:08.715Z,92.12
2022-12-29T00:33:41.412Z,92.22
2022-12-29T00:34:14.076Z,92.43
2022-12-29T00:34:46.801Z,92.22
2022-12-29T00:35:19.473Z,92.33
2022-12-29T00:35:52.157Z,92.22
2022-12-29T00:36:24.832Z,92.33
2022-12-29T00:36:57.491Z,92.53
2022-12-29T00:37:30.151Z,92.53
2022-12-29T00:38:02.837Z,92.84
2022-12-29T00:38:35.481Z,93.05
2022-12-29T00:39:08.195Z,92.84
2022-12-29T00:39:40.849Z,92.63
2022-12-29T00:40:13.515Z,92.94
2022-12-29T00:40:46.312Z,92.74
2022-12-29T00:41:18.985Z,92.74
2022-12-29T00:41:51.662Z,92.94
2022-12-29T00:42:24.345Z,93.15
2022-12-29T00:42:57.010Z,93.35
2022-12-29T00:43:29.710Z,93.25
2022-12-29T00:44:02.358Z,93.15
2022-12-29T00:44:35.037Z,93.35
2022-12-29T00:45:07.772Z,93.46
2022-12-29T00:45:40.434Z,93.35
2022-12-29T00:46:19.463Z,93.35
2022-12-29T00:46:45.258Z,93.46
2022-12-29T00:47:11.512Z,93.56
2022-12-29T00:47:44.211Z,93.56
2022-12-29T00:48:16.869Z,93.66
2022-12-29T00:48:49.566Z,93.77
2022-12-29T00:49:22.222Z,93.77
2022-12-29T00:49:54.892Z,93.87
2022-12-29T00:50:27.574Z,94.08
2022-12-29T00:51:00.269Z,94.32
2022-12-29T00:51:32.947Z,94.32
2022-12-29T00:52:05.622Z,94.23
2022-12-29T00:52:38.281Z,94.12
2022-12-29T00:53:10.960Z,93.91
2022-12-29T00:53:43.638Z,93.60
2022-12-29T00:54:16.311Z,93.60
2022-12-29T00:54:44.363Z,93.71
2022-12-29T00:55:17.028Z,93.91
2022-12-29T00:55:48.141Z,94.02
2022-12-29T00:56:20.789Z,93.91
2022-12-29T00:56:53.454Z,93.71
2022-12-29T00:57:26.153Z,93.81
2022-12-29T00:57:58.821Z,93.91
2022-12-29T00:58:31.504Z,93.91
2022-12-29T00:59:04.152Z,94.02
2022-12-29T00:59:36.837Z,94.02
2022-12-29T01:00:09.509Z,93.71
2022-12-29T01:00:42.221Z,93.81
2022-12-29T01:01:14.977Z,93.81
2022-12-29T01:01:47.730Z,93.81
2022-12-29T01:02:20.479Z,93.81
2022-12-29T01:02:53.316Z,93.71
2022-12-29T01:03:26.014Z,93.77
2022-12-29T01:04:03.713Z,93.91
2022-12-29T01:04:30.805Z,93.81
2022-12-29T01:04:56.966Z,93.71
2022-12-29T01:05:29.665Z,93.60
2022-12-29T01:06:02.339Z,93.60
2022-12-29T01:06:34.991Z,93.71
2022-12-29T01:07:07.677Z,93.87
2022-12-29T01:07:40.331Z,94.12
2022-12-29T01:08:13.015Z,94.32
2022-12-29T01:08:45.699Z,94.02
2022-12-29T01:09:18.360Z,93.91
2022-12-29T01:09:51.039Z,94.02
2022-12-29T01:10:23.766Z,94.12
2022-12-29T01:10:56.420Z,94.12
2022-12-29T01:11:29.086Z,94.02
2022-12-29T01:12:01.773Z,94.02
2022-12-29T01:12:34.444Z,94.23
2022-12-29T01:13:07.113Z,94.12
2022-12-29T01:13:39.930Z,94.12
2022-12-29T01:14:12.597Z,94.02
2022-12-29T01:14:45.312Z,93.60
2022-12-29T01:15:17.962Z,93.50
2022-12-29T01:15:44.497Z,93.60
2022-12-29T01:16:17.207Z,93.81
2022-12-29T01:16:44.490Z,93.81
2022-12-29T01:17:17.177Z,93.81
2022-12-29T01:17:44.267Z,93.71
2022-12-29T01:18:16.916Z,93.81
2022-12-29T01:18:49.713Z,93.91
2022-12-29T01:19:22.411Z,93.81
2022-12-29T01:19:55.076Z,93.60
2022-12-29T01:20:27.743Z,93.60
2022-12-29T01:21:00.437Z,93.71
2022-12-29T01:21:33.085Z,93.71
2022-12-29T01:21:59.908Z,93.71
2022-12-29T01:22:32.560Z,93.81
2022-12-29T01:23:05.241Z,93.50
2022-12-29T01:23:37.900Z,93.30
2022-12-29T01:24:10.588Z,93.30
2022-12-29T01:24:43.258Z,93.60
2022-12-29T01:25:15.927Z,93.60
2022-12-29T01:25:48.588Z,93.40
2022-12-29T01:26:21.293Z,93.15
2022-12-29T01:26:53.965Z,92.84
2022-12-29T01:27:26.656Z,93.05
2022-12-29T01:27:59.326Z,93.05
2022-12-29T01:28:32.005Z,93.46
2022-12-29T01:28:58.738Z,93.35
2022-12-29T01:29:31.418Z,93.25
2022-12-29T01:30:04.109Z,93.15
2022-12-29T01:30:36.782Z,93.46
2022-12-29T01:31:09.505Z,93.66
2022-12-29T01:31:42.242Z,93.87
2022-12-29T01:32:14.907Z,93.98
2022-12-29T01:32:47.590Z,93.87
2022-12-29T01:33:20.270Z,93.98
2022-12-29T01:33:52.927Z,94.23
2022-12-29T01:34:25.628Z,94.18
2022-12-29T01:34:58.284Z,94.28
2022-12-29T01:35:30.963Z,94.64
2022-12-29T01:36:03.616Z,94.64
2022-12-29T01:36:36.308Z,94.53
2022-12-29T01:37:08.959Z,94.43
2022-12-29T01:37:41.643Z,94.12
2022-12-29T01:38:14.305Z,93.91
2022-12-29T01:38:46.967Z,93.87
2022-12-29T01:39:19.671Z,94.12
2022-12-29T01:39:52.326Z,94.28
2022-12-29T01:40:25.001Z,94.49
2022-12-29T01:40:57.664Z,94.70
2022-12-29T01:41:30.328Z,94.90
2022-12-29T01:42:03.009Z,94.74
2022-12-29T01:42:35.661Z,94.64
2022-12-29T01:43:08.338Z,94.84
2022-12-29T01:43:41.003Z,94.95
2022-12-29T01:44:13.682Z,95.05
2022-12-29T01:44:40.585Z,95.05
2022-12-29T01:45:13.273Z,95.15
2022-12-29T01:45:40.200Z,95.15
2022-12-29T01:46:12.893Z,95.15
2022-12-29T01:46:45.596Z,95.25
2022-12-29T01:47:18.293Z,95.56
2022-12-29T01:47:51.014Z,95.56
2022-12-29T01:48:23.715Z,95.25
2022-12-29T01:48:54.791Z,95.36
2022-12-29T01:49:27.519Z,95.25
2022-12-29T01:50:00.227Z,95.36
2022-12-29T01:50:32.874Z,95.36
2022-12-29T01:50:59.618Z,95.56
2022-12-29T01:51:32.313Z,95.67
2022-12-29T01:52:04.957Z,95.67
2022-12-29T01:52:37.634Z,95.46
2022-12-29T01:53:10.292Z,95.05
2022-12-29T01:53:42.964Z,95.15
2022-12-29T01:54:15.687Z,95.25
2022-12-29T01:54:48.360Z,95.25
2022-12-29T01:55:21.022Z,94.95
2022-12-29T01:55:53.704Z,94.64
2022-12-29T01:56:26.367Z,94.74
2022-12-29T01:56:59.050Z,94.74
2022-12-29T01:57:31.738Z,94.64
2022-12-29T01:58:04.382Z,94.59
2022-12-29T01:58:37.035Z,94.95
2022-12-29T01:59:09.714Z,95.05
2022-12-29T01:59:42.402Z,95.15
2022-12-29T02:00:15.078Z,95.25
2022-12-29T02:00:47.817Z,95.25
2022-12-29T02:01:20.594Z,95.36
2022-12-29T02:01:53.499Z,95.36
2022-12-29T02:02:26.320Z,95.25
2022-12-29T02:02:59.233Z,95.25
2022-12-29T02:03:31.984Z,95.46
2022-12-29T02:04:04.657Z,95.46
2022-12-29T02:04:37.385Z,95.56
2022-12-29T02:05:10.028Z,95.67
2022-12-29T02:05:42.722Z,95.77
2022-12-29T02:06:15.381Z,95.56
2022-12-29T02:06:48.054Z,95.36
2022-12-29T02:07:20.745Z,95.46
2022-12-29T02:07:53.408Z,95.56
2022-12-29T02:08:26.065Z,95.67
2022-12-29T02:08:58.728Z,95.67
2022-12-29T02:09:31.435Z,95.67
2022-12-29T02:10:04.077Z,95.67
2022-12-29T02:10:36.767Z,95.67
2022-12-29T02:11:09.419Z,95.77
2022-12-29T02:11:42.099Z,95.77
2022-12-29T02:12:14.777Z,95.87
2022-12-29T02:12:47.469Z,95.87
2022-12-29T02:13:20.128Z,96.18
2022-12-29T02:13:52.797Z,96.18
2022-12-29T02:14:25.482Z,96.18
2022-12-29T02:14:58.154Z,96.18
2022-12-29T02:15:30.809Z,96.18
2022-12-29T02:16:03.576Z,96.18
2022-12-29T02:16:36.349Z,96.08
2022-12-29T02:17:09.078Z,96.18
2022-12-29T02:17:41.746Z,96.08
2022-12-29T02:18:14.424Z,95.98
2022-12-29T02:18:47.095Z,95.87
2022-12-29T02:19:19.783Z,95.98
2022-12-29T02:19:52.471Z,95.98
2022-12-29T02:20:25.136Z,95.98
2022-12-29T02:20:57.789Z,95.67
2022-12-29T02:21:30.453Z,95.77
2022-12-29T02:22:03.142Z,95.67
2022-12-29T02:22:35.824Z,95.36
2022-12-29T02:23:08.492Z,95.36
2022-12-29T02:23:41.169Z,95.36
2022-12-29T02:24:13.844Z,95.36
2022-12-29T02:24:46.950Z,95.46
2022-12-29T02:25:13.128Z,95.46
2022-12-29T02:25:45.836Z,95.46
2022-12-29T02:26:18.564Z,95.25
2022-12-29T02:26:51.203Z,95.15
2022-12-29T02:27:23.993Z,95.05
2022-12-29T02:27:56.666Z,95.05
2022-12-29T02:28:29.330Z,95.05
2022-12-29T02:29:02.007Z,95.15
2022-12-29T02:29:34.707Z,94.95
2022-12-29T02:30:07.463Z,95.05
2022-12-29T02:30:40.101Z,95.05
2022-12-29T02:31:12.888Z,94.95
2022-12-29T02:31:45.564Z,95.05
2022-12-29T02:32:18.210Z,95.05
2022-12-29T02:32:51.072Z,94.80
2022-12-29T02:33:23.803Z,94.84
2022-12-29T02:33:56.471Z,94.84
2022-12-29T02:34:29.165Z,94.59
2022-12-29T02:35:01.854Z,94.84
2022-12-29T02:35:34.513Z,94.80
2022-12-29T02:36:07.202Z,94.84
2022-12-29T02:36:40.138Z,94.64
2022-12-29T02:37:12.799Z,94.43
2022-12-29T02:37:45.513Z,94.08
2022-12-29T02:38:18.156Z,93.98
2022-12-29T02:38:50.835Z,93.98
2022-12-29T02:39:23.538Z,93.77
2022-12-29T02:39:56.177Z,93.77
2022-12-29T02:40:28.860Z,93.56
2022-12-29T02:40:59.935Z,93.46
2022-12-29T02:41:32.606Z,93.56
2022-12-29T02:42:05.287Z,93.46
2022-12-29T02:42:37.949Z,93.25
2022-12-29T02:43:10.624Z,93.05
2022-12-29T02:43:43.306Z,93.05
2022-12-29T02:44:15.969Z,93.05
2022-12-29T02:44:48.665Z,92.74
2022-12-29T02:45:21.320Z,92.74
2022-12-29T02:45:54.039Z,92.63
2022-12-29T02:46:26.829Z,92.43
2022-12-29T02:46:59.518Z,92.33
2022-12-29T02:47:32.165Z,92.22
2022-12-29T02:48:04.831Z,92.43
2022-12-29T02:48:37.505Z,92.33
2022-12-29T02:49:10.170Z,92.12
2022-12-29T02:49:42.857Z,92.22
2022-12-29T02:50:15.557Z,92.43
2022-12-29T02:50:48.222Z,92.02
2022-12-29T02:51:20.866Z,92.12
2022-12-29T02:51:53.557Z,92.02
2022-12-29T02:52:26.218Z,92.22
2022-12-29T02:52:58.885Z,92.12
2022-12-29T02:53:31.550Z,91.91
2022-12-29T02:54:04.250Z,91.50
2022-12-29T02:54:36.968Z,91.50
2022-12-29T02:55:09.601Z,91.60
2022-12-29T02:55:40.693Z,91.60
2022-12-29T02:56:13.363Z,91.71
2022-12-29T02:56:44.454Z,91.40
2022-12-29T02:57:18.281Z,91.60
2022-12-29T02:57:44.668Z,91.50
2022-12-29T02:58:17.359Z,90.99
2022-12-29T02:58:49.994Z,91.19
2022-12-29T02:59:22.680Z,91.40
2022-12-29T02:59:55.345Z,91.36
2022-12-29T03:00:28.037Z,91.25
2022-12-29T03:01:00.727Z,91.36
2022-12-29T03:01:33.499Z,91.25
2022-12-29T03:02:00.050Z,91.05
2022-12-29T03:02:32.975Z,91.15
2022-12-29T03:03:05.875Z,90.84
2022-12-29T03:03:38.607Z,91.05
2022-12-29T03:04:11.286Z,91.15
2022-12-29T03:04:44.011Z,91.15
2022-12-29T03:05:16.642Z,90.84
2022-12-29T03:05:43.406Z,90.84
2022-12-29T03:06:16.044Z,90.94
2022-12-29T03:06:44.212Z,90.94
2022-12-29T03:07:16.913Z,90.84
2022-12-29T03:07:49.689Z,90.53
2022-12-29T03:08:22.359Z,90.22
2022-12-29T03:08:53.437Z,90.22
2022-12-29T03:09:26.130Z,90.22
2022-12-29T03:09:53.692Z,89.91
2022-12-29T03:10:24.774Z,89.71
2022-12-29T03:10:57.453Z,89.91
2022-12-29T03:11:30.138Z,90.01
2022-12-29T03:12:02.851Z,89.81
2022-12-29T03:12:35.487Z,89.50
2022-12-29T03:13:08.144Z,89.61
2022-12-29T03:13:40.816Z,89.25
2022-12-29T03:14:13.480Z,89.15
2022-12-29T03:14:40.591Z,88.74
2022-12-29T03:15:13.275Z,88.53
2022-12-29T03:15:40.417Z,88.64
2022-12-29T03:16:13.224Z,88.84
2022-12-29T03:16:46.055Z,89.05
2022-12-29T03:17:18.755Z,89.05
2022-12-29T03:17:51.419Z,89.15
2022-12-29T03:18:24.092Z,89.15
2022-12-29T03:18:56.777Z,88.74
2022-12-29T03:19:29.454Z,88.74
2022-12-29T03:20:02.146Z,88.53
2022-12-29T03:20:34.816Z,88.74
2022-12-29T03:21:07.508Z,88.74
2022-12-29T03:21:40.174Z,88.74
2022-12-29T03:22:11.262Z,88.95
2022-12-29T03:22:43.937Z,88.74
2022-12-29T03:23:16.606Z,88.95
2022-12-29T03:23:49.275Z,88.95
2022-12-29T03:24:21.972Z,88.84
2022-12-29T03:24:54.655Z,88.33
2022-12-29T03:25:27.321Z,88.23
2022-12-29T03:25:59.986Z,88.23
2022-12-29T03:26:32.650Z,88.23
2022-12-29T03:27:05.360Z,88.33
2022-12-29T03:27:37.998Z,88.43
2022-12-29T03:28:10.667Z,88.53
2022-12-29T03:28:43.391Z,88.43
2022-12-29T03:29:16.049Z,88.12
2022-12-29T03:29:42.654Z,88.23
2022-12-29T03:30:15.327Z,88.02
2022-12-29T03:30:42.742Z,87.92
2022-12-29T03:31:15.483Z,88.08
2022-12-29T03:31:48.196Z,87.87
2022-12-29T03:32:20.894Z,87.98
2022-12-29T03:32:53.560Z,87.98
2022-12-29T03:33:26.234Z,87.98
2022-12-29T03:33:58.891Z,87.77
2022-12-29T03:34:31.580Z,87.67
2022-12-29T03:35:04.249Z,87.67
2022-12-29T03:35:36.929Z,87.15
2022-12-29T03:36:09.602Z,86.95
2022-12-29T03:36:42.256Z,86.95
2022-12-29T03:37:14.915Z,86.95
2022-12-29T03:37:47.597Z,87.36
2022-12-29T03:38:20.293Z,87.15
2022-12-29T03:38:52.994Z,86.74
2022-12-29T03:39:25.681Z,86.54
2022-12-29T03:39:58.347Z,86.85
2022-12-29T03:40:31.003Z,87.05
2022-12-29T03:41:03.668Z,86.85
2022-12-29T03:41:36.344Z,86.95
2022-12-29T03:42:09.019Z,87.15
2022-12-29T03:42:41.701Z,87.05
2022-12-29T03:43:14.373Z,86.85
2022-12-29T03:43:47.066Z,86.85
2022-12-29T03:44:19.725Z,86.43
2022-12-29T03:44:52.403Z,86.64
2022-12-29T03:45:25.067Z,87.26
2022-12-29T03:45:57.777Z,86.74
2022-12-29T03:46:30.499Z,86.54
2022-12-29T03:47:03.157Z,86.19
2022-12-29T03:47:35.826Z,86.19
2022-12-29T03:48:08.493Z,86.60
2022-12-29T03:48:41.161Z,86.50
2022-12-29T03:49:13.834Z,86.70
2022-12-29T03:49:46.522Z,86.60
2022-12-29T03:50:19.185Z,86.50
2022-12-29T03:50:51.866Z,86.70
2022-12-29T03:51:24.548Z,86.60
2022-12-29T03:51:57.180Z,86.50
2022-12-29T03:52:29.851Z,86.70
2022-12-29T03:53:02.519Z,86.29
2022-12-29T03:53:35.187Z,86.08
2022-12-29T03:54:07.866Z,86.29
2022-12-29T03:54:40.553Z,86.60
2022-12-29T03:55:13.254Z,86.60
2022-12-29T03:55:45.923Z,86.29
2022-12-29T03:56:18.590Z,86.40
2022-12-29T03:56:51.282Z,86.60
2022-12-29T03:57:23.954Z,86.50
2022-12-29T03:57:56.619Z,86.60
2022-12-29T03:58:29.306Z,86.80
2022-12-29T03:59:02.007Z,86.91
2022-12-29T03:59:34.687Z,86.29
2022-12-29T04:00:07.356Z,86.29
2022-12-29T04:00:40.136Z,86.29
2022-12-29T04:01:12.889Z,86.40
2022-12-29T04:01:45.712Z,86.50
2022-12-29T04:02:18.618Z,86.40
2022-12-29T04:02:45.405Z,86.40
2022-12-29T04:03:11.868Z,86.29
2022-12-29T04:03:42.866Z,86.19
2022-12-29T04:04:15.523Z,86.08
2022-12-29T04:04:43.781Z,85.98
2022-12-29T04:05:16.442Z,86.19
2022-12-29T04:05:49.131Z,86.40
2022-12-29T04:06:21.786Z,86.29
2022-12-29T04:06:54.490Z,86.40
2022-12-29T04:07:27.135Z,86.60
2022-12-29T04:07:59.846Z,86.50
2022-12-29T04:08:32.496Z,86.19
2022-12-29T04:08:59.364Z,86.50
2022-12-29T04:09:32.034Z,86.29
2022-12-29T04:10:04.838Z,86.40
2022-12-29T04:10:37.465Z,86.19
2022-12-29T04:11:10.143Z,86.29
2022-12-29T04:11:42.817Z,86.60
2022-12-29T04:12:15.467Z,86.80
2022-12-29T04:12:48.139Z,86.60
2022-12-29T04:13:20.813Z,86.50
2022-12-29T04:13:53.479Z,86.60
2022-12-29T04:14:26.147Z,86.40
2022-12-29T04:14:58.858Z,86.40
2022-12-29T04:15:31.597Z,86.40
2022-12-29T04:15:58.817Z,86.40
2022-12-29T04:16:31.461Z,86.40
2022-12-29T04:17:04.133Z,85.98
2022-12-29T04:17:36.823Z,85.98
2022-12-29T04:18:09.498Z,85.94
2022-12-29T04:18:42.181Z,86.15
2022-12-29T04:19:14.863Z,86.05
2022-12-29T04:19:47.522Z,85.94
2022-12-29T04:20:20.211Z,86.05
2022-12-29T04:20:52.886Z,86.05
2022-12-29T04:21:25.565Z,86.15
2022-12-29T04:21:58.239Z,85.84
2022-12-29T04:22:30.894Z,85.84
2022-12-29T04:23:03.537Z,85.94
2022-12-29T04:23:36.219Z,85.94
2022-12-29T04:24:08.889Z,85.74
2022-12-29T04:24:41.551Z,85.74
2022-12-29T04:25:14.238Z,85.84
2022-12-29T04:25:47.184Z,86.05
2022-12-29T04:26:19.981Z,86.15
2022-12-29T04:26:52.660Z,86.15
2022-12-29T04:27:25.331Z,85.84
2022-12-29T04:27:58.003Z,86.05
2022-12-29T04:28:30.695Z,86.25
2022-12-29T04:29:03.560Z,86.25
2022-12-29T04:29:36.237Z,86.05
2022-12-29T04:30:08.917Z,86.46
2022-12-29T04:30:41.589Z,86.66
2022-12-29T04:31:14.315Z,86.35
2022-12-29T04:31:47.146Z,86.15
2022-12-29T04:32:19.829Z,86.35
2022-12-29T04:32:52.484Z,86.35
2022-12-29T04:33:25.167Z,86.05
2022-12-29T04:33:57.868Z,86.05
2022-12-29T04:34:30.539Z,85.94
2022-12-29T04:35:03.211Z,86.05
2022-12-29T04:35:35.901Z,85.84
2022-12-29T04:36:08.575Z,85.84
2022-12-29T04:36:41.267Z,86.15
2022-12-29T04:37:13.954Z,86.15
2022-12-29T04:37:40.509Z,86.25
2022-12-29T04:38:13.230Z,86.15
2022-12-29T04:38:40.506Z,86.05
2022-12-29T04:39:13.194Z,86.05
2022-12-29T04:39:40.215Z,85.94
2022-12-29T04:40:12.914Z,85.94
2022-12-29T04:40:45.575Z,86.05
2022-12-29T04:41:18.246Z,86.05
2022-12-29T04:41:50.906Z,85.94
2022-12-29T04:42:23.599Z,86.25
2022-12-29T04:42:56.246Z,86.25
2022-12-29T04:43:28.924Z,86.15
2022-12-29T04:44:01.627Z,86.25
2022-12-29T04:44:35.330Z,86.35
2022-12-29T04:45:03.727Z,86.15
2022-12-29T04:45:36.411Z,86.05
2022-12-29T04:46:09.122Z,86.15
2022-12-29T04:46:41.875Z,86.15
2022-12-29T04:47:14.558Z,86.05
2022-12-29T04:47:47.244Z,86.15
2022-12-29T04:48:19.900Z,86.46
2022-12-29T04:48:52.576Z,86.35
2022-12-29T04:49:25.248Z,86.25
2022-12-29T04:49:57.925Z,86.05
2022-12-29T04:50:30.637Z,86.25
2022-12-29T04:51:03.295Z,86.15
2022-12-29T04:51:35.955Z,85.84
2022-12-29T04:52:08.637Z,85.63
2022-12-29T04:52:41.333Z,85.63
2022-12-29T04:53:13.982Z,85.74
2022-12-29T04:53:46.634Z,85.74
2022-12-29T04:54:19.301Z,85.63
2022-12-29T04:54:51.981Z,85.63
2022-12-29T04:55:24.693Z,85.53
2022-12-29T04:55:57.378Z,85.53
2022-12-29T04:56:30.078Z,85.12
2022-12-29T04:57:02.750Z,85.22
2022-12-29T04:57:35.443Z,85.43
2022-12-29T04:58:08.116Z,85.53
2022-12-29T04:58:40.779Z,85.63
2022-12-29T04:59:13.444Z,85.43
2022-12-29T04:59:40.685Z,85.43
2022-12-29T05:00:13.352Z,85.53
2022-12-29T05:00:46.035Z,85.63
2022-12-29T05:01:18.809Z,85.53
2022-12-29T05:01:51.669Z,85.63
2022-12-29T05:02:24.479Z,85.63
2022-12-29T05:02:57.468Z,85.74
2022-12-29T05:03:30.311Z,85.94
2022-12-29T05:04:03.110Z,85.94
2022-12-29T05:04:35.871Z,85.94
2022-12-29T05:05:08.582Z,85.94
2022-12-29T05:05:41.266Z,85.63
2022-12-29T05:06:13.925Z,85.53
2022-12-29T05:06:46.603Z,85.74
2022-12-29T05:07:19.287Z,85.74
2022-12-29T05:07:51.992Z,85.53
2022-12-29T05:08:28.010Z,85.39
2022-12-29T05:08:54.580Z,85.63
2022-12-29T05:09:27.268Z,85.53
2022-12-29T05:09:59.960Z,85.70
2022-12-29T05:10:32.647Z,85.49
2022-12-29T05:11:05.316Z,85.49
2022-12-29T05:11:37.993Z,85.39
2022-12-29T05:12:10.666Z,85.28
2022-12-29T05:12:43.330Z,85.18
2022-12-29T05:13:16.001Z,85.18
2022-12-29T05:13:48.694Z,85.18
2022-12-29T05:14:21.355Z,85.08
2022-12-29T05:14:54.017Z,85.18
2022-12-29T05:15:26.697Z,85.28
2022-12-29T05:15:59.393Z,85.28
2022-12-29T05:16:32.091Z,85.39
2022-12-29T05:17:04.752Z,85.08
2022-12-29T05:17:37.418Z,84.98
2022-12-29T05:18:10.088Z,85.18
2022-12-29T05:18:42.745Z,85.28
2022-12-29T05:19:15.420Z,85.49
2022-12-29T05:19:48.110Z,85.28
2022-12-29T05:20:20.791Z,85.18
2022-12-29T05:20:53.469Z,85.18
2022-12-29T05:21:26.138Z,85.39
2022-12-29T05:21:58.792Z,85.49
2022-12-29T05:22:31.489Z,85.49
2022-12-29T05:23:04.171Z,85.39
2022-12-29T05:23:36.815Z,85.49
2022-12-29T05:24:09.494Z,85.60
2022-12-29T05:24:42.166Z,85.70
2022-12-29T05:25:14.888Z,85.60
2022-12-29T05:25:47.565Z,85.18
2022-12-29T05:26:20.217Z,85.18
2022-12-29T05:26:52.886Z,85.18
2022-12-29T05:27:25.554Z,85.18
2022-12-29T05:27:58.237Z,85.39
2022-12-29T05:28:30.915Z,85.39
2022-12-29T05:29:03.588Z,85.39
2022-12-29T05:29:36.283Z,85.08
2022-12-29T05:30:09.173Z,85.28
2022-12-29T05:30:41.855Z,85.18
2022-12-29T05:31:14.583Z,85.28
2022-12-29T05:31:47.344Z,85.18
2022-12-29T05:32:20.019Z,85.08
2022-12-29T05:32:52.685Z,85.18
2022-12-29T05:33:25.367Z,84.98
2022-12-29T05:33:58.038Z,84.98
2022-12-29T05:34:30.708Z,84.94
2022-12-29T05:35:03.408Z,84.98
2022-12-29T05:35:36.054Z,85.04
2022-12-29T05:36:08.752Z,85.04
2022-12-29T05:36:41.415Z,84.84
2022-12-29T05:37:14.082Z,84.84
2022-12-29T05:37:46.911Z,84.94
2022-12-29T05:38:19.616Z,84.84
2022-12-29T05:38:52.279Z,85.04
2022-12-29T05:39:24.944Z,85.04
2022-12-29T05:39:57.616Z,84.94
2022-12-29T05:40:30.313Z,84.94
2022-12-29T05:41:02.983Z,84.94
2022-12-29T05:41:35.660Z,85.14
2022-12-29T05:42:08.329Z,85.14
2022-12-29T05:42:39.424Z,85.25
2022-12-29T05:43:12.086Z,85.14
2022-12-29T05:43:44.773Z,85.14
2022-12-29T05:44:17.466Z,85.14
2022-12-29T05:44:44.479Z,85.14
2022-12-29T05:45:17.186Z,84.94
2022-12-29T05:45:44.605Z,84.84
2022-12-29T05:46:17.399Z,84.94
2022-12-29T05:46:44.935Z,84.94
2022-12-29T05:47:17.639Z,85.04
2022-12-29T05:47:50.296Z,85.25
2022-12-29T05:48:22.963Z,85.04
2022-12-29T05:48:55.643Z,85.14
2022-12-29T05:49:28.339Z,85.25
2022-12-29T05:50:00.993Z,85.46
2022-12-29T05:50:33.674Z,85.55
2022-12-29T05:51:06.359Z,85.46
2022-12-29T05:51:39.012Z,85.46
2022-12-29T05:52:11.677Z,85.55
2022-12-29T05:52:44.374Z,85.76
2022-12-29T05:53:17.045Z,85.46
2022-12-29T05:53:49.807Z,85.46
2022-12-29T05:54:22.462Z,85.46
2022-12-29T05:54:55.114Z,85.14
2022-12-29T05:55:27.793Z,85.25
2022-12-29T05:56:00.505Z,85.14
2022-12-29T05:56:33.154Z,85.25
2022-12-29T05:56:59.755Z,85.04
2022-12-29T05:57:32.424Z,85.04
2022-12-29T05:57:59.460Z,85.04
2022-12-29T05:58:32.151Z,84.84
2022-12-29T05:59:04.809Z,84.94
2022-12-29T05:59:37.493Z,85.00
2022-12-29T06:00:10.177Z,85.00
2022-12-29T06:00:42.843Z,84.94
2022-12-29T06:01:15.514Z,85.00
2022-12-29T06:01:48.355Z,85.00
2022-12-29T06:02:21.207Z,85.00
2022-12-29T06:02:54.087Z,85.21
2022-12-29T06:03:26.937Z,85.11
2022-12-29T06:03:59.899Z,85.11
2022-12-29T06:04:32.575Z,85.11
2022-12-29T06:04:59.243Z,85.21
2022-12-29T06:05:31.964Z,84.90
2022-12-29T06:06:04.635Z,85.00
2022-12-29T06:06:37.284Z,85.00
2022-12-29T06:07:09.954Z,85.00
2022-12-29T06:07:42.667Z,84.90
2022-12-29T06:08:15.316Z,84.69
2022-12-29T06:08:47.988Z,84.80
2022-12-29T06:09:20.672Z,84.59
2022-12-29T06:09:53.321Z,84.80
2022-12-29T06:10:26.037Z,84.69
2022-12-29T06:10:58.704Z,84.90
2022-12-29T06:11:31.381Z,84.90
2022-12-29T06:12:02.518Z,84.90
2022-12-29T06:12:35.153Z,84.90
2022-12-29T06:13:07.835Z,85.00
2022-12-29T06:13:40.515Z,85.00
2022-12-29T06:14:13.165Z,85.00
2022-12-29T06:14:45.908Z,85.00
2022-12-29T06:15:18.609Z,84.90
2022-12-29T06:15:51.275Z,84.90
2022-12-29T06:16:24.058Z,85.00
2022-12-29T06:16:56.738Z,84.80
2022-12-29T06:17:29.389Z,85.00
2022-12-29T06:18:02.105Z,84.90
2022-12-29T06:18:34.840Z,84.90
2022-12-29T06:19:07.551Z,84.90
2022-12-29T06:19:40.210Z,85.00
2022-12-29T06:20:12.888Z,85.00
2022-12-29T06:20:45.560Z,85.00
2022-12-29T06:21:18.255Z,85.00
2022-12-29T06:21:50.974Z,84.86
2022-12-29T06:22:23.651Z,85.11
2022-12-29T06:22:56.325Z,85.11
2022-12-29T06:23:29.022Z,85.27
2022-12-29T06:24:01.684Z,85.21
2022-12-29T06:24:34.382Z,85.21
2022-12-29T06:25:07.051Z,85.11
2022-12-29T06:25:39.828Z,84.96
2022-12-29T06:26:12.500Z,85.17
2022-12-29T06:26:45.179Z,84.86
2022-12-29T06:27:17.845Z,84.66
2022-12-29T06:27:50.513Z,84.76
2022-12-29T06:28:23.178Z,84.76
2022-12-29T06:28:55.848Z,84.76
2022-12-29T06:29:28.518Z,84.55
2022-12-29T06:30:01.244Z,84.66
2022-12-29T06:30:33.991Z,84.55
2022-12-29T06:31:06.655Z,84.34
2022-12-29T06:31:33.426Z,84.25
2022-12-29T06:32:06.328Z,84.34
2022-12-29T06:32:38.992Z,84.45
2022-12-29T06:33:11.646Z,84.34
2022-12-29T06:33:48.233Z,84.45
2022-12-29T06:34:16.408Z,84.45
2022-12-29T06:34:42.578Z,84.45
2022-12-29T06:35:15.265Z,84.14
2022-12-29T06:35:47.946Z,84.45
2022-12-29T06:36:20.617Z,84.45
2022-12-29T06:36:53.363Z,84.25
2022-12-29T06:37:26.027Z,84.45
2022-12-29T06:37:58.690Z,84.45
2022-12-29T06:38:31.361Z,84.34
2022-12-29T06:39:04.026Z,84.14
2022-12-29T06:39:36.711Z,84.45
2022-12-29T06:40:09.429Z,84.41
2022-12-29T06:40:42.079Z,84.45
2022-12-29T06:41:14.745Z,84.00
2022-12-29T06:41:47.428Z,84.10
2022-12-29T06:42:20.090Z,84.10
2022-12-29T06:42:52.775Z,83.90
2022-12-29T06:43:25.426Z,84.20
2022-12-29T06:43:58.091Z,84.20
2022-12-29T06:44:30.767Z,84.10
2022-12-29T06:45:03.474Z,84.20
2022-12-29T06:45:36.165Z,84.00
2022-12-29T06:46:08.953Z,83.90
2022-12-29T06:46:41.723Z,84.00
2022-12-29T06:47:14.410Z,83.90
2022-12-29T06:47:47.095Z,83.80
2022-12-29T06:48:19.749Z,83.59
2022-12-29T06:48:52.420Z,83.80
2022-12-29T06:49:25.085Z,84.00
2022-12-29T06:49:57.787Z,84.00
2022-12-29T06:50:30.442Z,84.20
2022-12-29T06:51:03.140Z,84.00
2022-12-29T06:51:35.820Z,84.10
2022-12-29T06:52:12.781Z,84.00
2022-12-29T06:52:39.422Z,84.31
2022-12-29T06:53:12.094Z,84.10
2022-12-29T06:53:44.776Z,83.80
2022-12-29T06:54:17.439Z,84.10
2022-12-29T06:54:50.149Z,84.20
2022-12-29T06:55:22.828Z,83.90
2022-12-29T06:55:55.492Z,84.00
2022-12-29T06:56:28.131Z,84.00